Time;durP1;ratioP1;P1;durP2;ratioP2;P2;SDS_P1;SDS_P2;PMS_P1;PMS_P2;Temp;Humidity;BMP_temperature;BMP_pressure;BME280_temperature;BME280_humidity;BME280_pressure;Samples;Min_cycle;Max_cycle;Signal;HPM_P1;HPM_P2
2023/05/01 00:01:28;;;;;;;6.80;3.47;;;11.10;99.90;;;;;;5071996;28;20391;-68
2023/05/01 00:03:55;;;;;;;4.27;3.87;;;11.10;99.90;;;;;;5071857;28;20232;-68
2023/05/01 00:06:21;;;;;;;4.30;3.60;;;11.10;99.90;;;;;;5071299;28;20213;-68
2023/05/01 00:08:48;;;;;;;5.10;4.43;;;11.20;99.90;;;;;;5072055;28;20205;-68
2023/05/01 00:11:15;;;;;;;3.90;3.60;;;11.10;99.90;;;;;;5071760;28;20220;-69
2023/05/01 00:13:42;;;;;;;4.33;3.93;;;11.00;99.90;;;;;;5071821;28;20200;-68
2023/05/01 00:16:09;;;;;;;5.03;4.50;;;10.90;99.90;;;;;;5071734;28;20205;-68
2023/05/01 00:18:37;;;;;;;5.57;4.33;;;10.70;99.90;;;;;;5071698;28;20212;-68
2023/05/01 00:21:04;;;;;;;6.20;4.30;;;10.70;99.90;;;;;;5071876;28;20236;-68
2023/05/01 00:23:31;;;;;;;4.83;4.33;;;10.70;99.90;;;;;;5072335;28;20329;-69
2023/05/01 00:25:57;;;;;;;6.67;3.80;;;10.80;99.90;;;;;;5072499;28;20487;-69
2023/05/01 00:28:24;;;;;;;4.50;3.90;;;10.80;99.90;;;;;;5072841;28;20245;-69
2023/05/01 00:30:51;;;;;;;3.63;3.30;;;10.70;99.90;;;;;;5072421;28;20746;-69
2023/05/01 00:33:18;;;;;;;3.50;3.20;;;10.80;99.90;;;;;;5072494;28;20201;-68
2023/05/01 00:35:46;;;;;;;5.50;3.63;;;10.80;99.90;;;;;;5071687;28;20585;-68
2023/05/01 00:38:13;;;;;;;5.90;4.03;;;10.90;99.90;;;;;;5074473;28;20312;-69
2023/05/01 00:40:43;;;;;;;4.33;3.93;;;10.90;99.90;;;;;;5075155;28;20251;-69
2023/05/01 00:43:11;;;;;;;3.87;3.47;;;11.00;99.90;;;;;;5075020;28;20312;-69
2023/05/01 00:45:38;;;;;;;4.90;3.80;;;11.00;99.90;;;;;;5075031;28;20303;-69
2023/05/01 00:48:05;;;;;;;4.73;4.23;;;11.00;99.90;;;;;;5074976;28;20209;-69
2023/05/01 00:50:32;;;;;;;7.80;4.50;;;10.90;99.90;;;;;;5075886;28;20229;-69
2023/05/01 00:53:00;;;;;;;5.50;4.00;;;11.00;99.90;;;;;;5075230;28;20673;-69
2023/05/01 00:55:28;;;;;;;5.17;4.27;;;11.00;99.90;;;;;;5075180;28;20205;-69
2023/05/01 00:57:56;;;;;;;5.37;3.97;;;11.00;99.90;;;;;;5075165;28;20673;-70
2023/05/01 01:00:23;;;;;;;6.37;4.00;;;11.00;99.90;;;;;;5075368;28;20221;-68
2023/05/01 01:02:50;;;;;;;5.00;4.13;;;11.00;99.90;;;;;;5075424;28;20591;-69
2023/05/01 01:05:18;;;;;;;6.07;4.10;;;11.00;99.90;;;;;;5075386;28;20209;-69
2023/05/01 01:07:53;;;;;;;5.70;4.20;;;11.00;99.90;;;;;;5074730;28;20205;-69
2023/05/01 01:10:31;;;;;;;6.53;4.53;;;11.00;99.90;;;;;;5081382;28;20279;-69
2023/05/01 01:13:08;;;;;;;6.63;4.23;;;11.00;99.90;;;;;;5085465;28;20235;-69
2023/05/01 01:15:40;;;;;;;5.63;4.13;;;10.90;99.90;;;;;;5079549;28;20205;-69
2023/05/01 01:18:12;;;;;;;5.63;4.47;;;10.90;99.90;;;;;;5075423;28;20292;-70
2023/05/01 01:20:44;;;;;;;5.93;4.30;;;10.90;99.90;;;;;;5074730;28;20237;-69
2023/05/01 01:23:38;;;;;;;4.90;4.17;;;10.90;99.90;;;;;;5074469;28;20224;-70
2023/05/01 01:26:13;;;;;;;5.00;4.40;;;10.90;99.90;;;;;;5074422;28;20215;-69
2023/05/01 01:29:00;;;;;;;6.80;4.00;;;10.90;99.90;;;;;;5074280;28;20205;-70
2023/05/01 01:31:40;;;;;;;6.17;3.97;;;10.90;99.90;;;;;;5074108;28;20712;-70
2023/05/01 01:34:14;;;;;;;5.03;4.53;;;10.90;99.90;;;;;;5074047;28;20201;-70
2023/05/01 01:36:47;;;;;;;8.07;4.10;;;10.90;99.90;;;;;;5074066;28;20262;-70
2023/05/01 01:39:26;;;;;;;4.90;4.37;;;10.80;99.90;;;;;;5074055;28;20327;-70
2023/05/01 01:41:54;;;;;;;4.90;4.23;;;10.80;99.90;;;;;;5123581;22;20227;-63
2023/05/01 01:44:30;;;;;;;5.60;3.90;;;10.80;99.90;;;;;;5081552;28;20225;-62
2023/05/01 01:46:59;;;;;;;5.17;3.90;;;10.90;99.90;;;;;;5081992;28;20265;-63
2023/05/01 01:49:30;;;;;;;4.20;3.80;;;10.90;99.90;;;;;;5081147;28;20205;-62
2023/05/01 01:51:58;;;;;;;5.20;4.00;;;11.00;99.90;;;;;;5081651;28;20236;-62
2023/05/01 01:54:31;;;;;;;6.10;4.50;;;11.10;99.90;;;;;;5080829;28;20204;-64
2023/05/01 01:57:02;;;;;;;4.63;4.23;;;11.10;99.90;;;;;;5079237;28;20205;-63
2023/05/01 01:59:33;;;;;;;4.03;3.73;;;11.20;99.90;;;;;;5079419;28;20671;-63
2023/05/01 02:02:02;;;;;;;5.33;3.80;;;11.20;99.90;;;;;;5078743;28;20224;-63
2023/05/01 02:04:31;;;;;;;5.03;4.50;;;11.30;99.90;;;;;;5079695;28;20228;-62
2023/05/01 02:06:59;;;;;;;6.40;4.20;;;11.30;99.90;;;;;;5078935;28;20620;-63
2023/05/01 02:09:29;;;;;;;5.50;3.67;;;11.30;99.90;;;;;;5078458;28;20201;-62
2023/05/01 02:11:57;;;;;;;4.80;4.33;;;11.30;99.90;;;;;;5078807;28;20232;-63
2023/05/01 02:14:26;;;;;;;4.63;3.70;;;11.30;99.90;;;;;;5078515;28;20291;-62
2023/05/01 02:16:57;;;;;;;5.00;3.93;;;11.30;99.90;;;;;;5078389;28;20232;-62
2023/05/01 02:19:26;;;;;;;4.87;4.37;;;11.30;99.90;;;;;;5078342;28;20277;-63
2023/05/01 02:21:57;;;;;;;6.33;4.97;;;11.30;99.90;;;;;;5078027;28;20232;-63
2023/05/01 02:24:25;;;;;;;5.93;5.33;;;11.40;99.90;;;;;;5078581;28;20235;-63
2023/05/01 02:26:56;;;;;;;8.87;4.90;;;11.40;99.90;;;;;;5077681;28;20201;-63
2023/05/01 02:29:24;;;;;;;10.93;5.50;;;11.40;99.90;;;;;;5076911;28;20209;-62
2023/05/01 02:31:51;;;;;;;8.63;6.00;;;11.40;99.90;;;;;;5080152;28;20237;-63
2023/05/01 02:34:18;;;;;;;9.63;5.43;;;11.40;99.90;;;;;;5080235;28;20268;-63
2023/05/01 02:36:45;;;;;;;7.67;5.20;;;11.30;99.90;;;;;;5080865;28;20212;-63
2023/05/01 02:39:13;;;;;;;8.70;5.30;;;11.20;99.90;;;;;;5080811;28;20228;-62
2023/05/01 02:41:41;;;;;;;5.50;4.70;;;11.20;99.90;;;;;;5079972;28;20690;-63
2023/05/01 02:44:11;;;;;;;6.70;4.73;;;11.20;99.90;;;;;;5081041;28;20224;-63
2023/05/01 02:46:42;;;;;;;6.87;4.93;;;11.20;99.90;;;;;;5079753;28;20652;-63
2023/05/01 02:49:10;;;;;;;5.47;4.97;;;11.30;99.90;;;;;;5079532;28;20208;-63
2023/05/01 02:51:38;;;;;;;7.23;5.30;;;11.30;99.90;;;;;;5079238;28;20221;-63
2023/05/01 02:54:07;;;;;;;5.60;4.83;;;11.40;99.90;;;;;;5078051;28;20205;-63
2023/05/01 02:56:35;;;;;;;7.87;5.70;;;11.50;99.90;;;;;;5077670;28;20209;-62
2023/05/01 02:59:02;;;;;;;8.57;5.47;;;11.40;99.90;;;;;;5077359;28;20722;-63
2023/05/01 03:01:29;;;;;;;7.27;5.57;;;11.40;99.90;;;;;;5077703;28;20739;-63
2023/05/01 03:03:57;;;;;;;6.63;4.90;;;11.40;99.90;;;;;;5078069;28;20229;-63
2023/05/01 03:06:24;;;;;;;5.17;4.50;;;11.50;99.90;;;;;;5077846;28;20318;-63
2023/05/01 03:08:51;;;;;;;4.50;4.10;;;11.50;99.90;;;;;;5078302;28;20205;-63
2023/05/01 03:11:17;;;;;;;7.23;4.30;;;11.50;99.90;;;;;;5077829;28;20288;-63
2023/05/01 03:13:46;;;;;;;5.07;4.17;;;11.30;99.90;;;;;;5077896;28;20227;-63
2023/05/01 03:16:13;;;;;;;5.17;4.20;;;11.20;99.90;;;;;;5077617;28;20208;-63
2023/05/01 03:18:40;;;;;;;5.13;3.97;;;11.20;99.90;;;;;;5077673;28;20287;-63
2023/05/01 03:21:07;;;;;;;5.83;4.30;;;11.20;99.90;;;;;;5077399;28;20262;-63
2023/05/01 03:23:34;;;;;;;5.03;4.10;;;11.20;99.90;;;;;;5077558;28;20217;-62
2023/05/01 03:26:01;;;;;;;7.27;4.00;;;11.20;99.90;;;;;;5077378;28;20228;-63
2023/05/01 03:28:28;;;;;;;4.80;4.30;;;11.30;99.90;;;;;;5076964;28;20236;-63
2023/05/01 03:30:56;;;;;;;5.10;4.60;;;11.30;99.90;;;;;;5077228;28;20229;-64
2023/05/01 03:33:23;;;;;;;4.40;3.97;;;11.30;99.90;;;;;;5078359;28;20283;-63
2023/05/01 03:36:00;;;;;;;5.00;4.40;;;11.30;99.90;;;;;;5077428;28;20583;-64
2023/05/01 03:38:27;;;;;;;5.37;4.60;;;11.30;99.90;;;;;;5078118;28;20212;-64
2023/05/01 03:40:54;;;;;;;4.80;4.10;;;11.40;99.90;;;;;;5077235;28;20600;-63
2023/05/01 03:43:22;;;;;;;4.93;4.40;;;11.40;99.90;;;;;;5077492;28;20721;-63
2023/05/01 03:45:49;;;;;;;5.50;4.97;;;11.50;99.90;;;;;;5077311;28;20214;-63
2023/05/01 03:48:21;;;;;;;4.57;4.00;;;11.50;99.90;;;;;;5077445;28;20230;-63
2023/05/01 03:50:48;;;;;;;6.60;4.40;;;11.60;99.90;;;;;;5077677;28;20264;-64
2023/05/01 03:53:15;;;;;;;4.30;3.80;;;11.60;99.90;;;;;;5077671;28;20228;-62
2023/05/01 03:55:42;;;;;;;4.73;4.13;;;11.60;99.90;;;;;;5076691;28;20209;-63
2023/05/01 03:58:10;;;;;;;4.23;3.83;;;11.50;99.90;;;;;;5077448;28;20205;-62
2023/05/01 04:00:37;;;;;;;4.63;4.03;;;11.60;99.90;;;;;;5077668;28;20229;-63
2023/05/01 04:03:05;;;;;;;6.67;4.00;;;11.50;99.90;;;;;;5077459;28;20215;-64
2023/05/01 04:05:33;;;;;;;4.63;4.23;;;11.50;99.90;;;;;;5077851;28;20209;-63
2023/05/01 04:08:00;;;;;;;4.67;4.17;;;11.50;99.90;;;;;;5077305;28;20201;-64
2023/05/01 04:10:27;;;;;;;5.00;4.50;;;11.60;99.90;;;;;;5078538;28;20224;-62
2023/05/01 04:12:54;;;;;;;5.50;4.30;;;11.60;99.90;;;;;;5080777;28;20296;-64
2023/05/01 04:15:22;;;;;;;4.67;4.27;;;11.60;99.90;;;;;;5081100;28;20201;-64
2023/05/01 04:17:49;;;;;;;5.17;4.27;;;11.70;99.90;;;;;;5080743;28;20201;-64
2023/05/01 04:20:18;;;;;;;5.03;4.50;;;11.70;99.90;;;;;;5080287;28;20235;-63
2023/05/01 04:22:46;;;;;;;8.50;4.60;;;11.70;99.90;;;;;;5080385;28;20243;-62
2023/05/01 04:25:13;;;;;;;4.77;4.37;;;11.70;99.90;;;;;;5080254;28;20753;-63
2023/05/01 04:27:40;;;;;;;5.30;4.37;;;11.70;99.90;;;;;;5080348;28;20258;-63
2023/05/01 04:30:08;;;;;;;5.13;4.63;;;11.70;99.90;;;;;;5079468;28;20227;-63
2023/05/01 04:32:35;;;;;;;4.70;4.30;;;11.70;99.90;;;;;;5080116;28;20211;-63
2023/05/01 04:35:03;;;;;;;4.30;3.90;;;11.70;99.90;;;;;;5079644;28;20754;-64
2023/05/01 04:37:30;;;;;;;4.83;4.30;;;11.70;99.90;;;;;;5083030;28;20205;-62
2023/05/01 04:39:58;;;;;;;3.77;3.47;;;11.70;99.90;;;;;;5080286;28;20244;-63
2023/05/01 04:42:30;;;;;;;7.20;4.03;;;11.70;99.90;;;;;;5080134;28;20688;-66
2023/05/01 04:45:00;;;;;;;6.53;5.17;;;11.80;99.90;;;;;;5080065;28;20248;-66
2023/05/01 04:47:27;;;;;;;8.80;7.07;;;11.90;99.90;;;;;;5080631;28;20209;-65
2023/05/01 04:49:54;;;;;;;8.57;6.30;;;12.00;99.90;;;;;;5080056;28;20271;-65
2023/05/01 04:52:22;;;;;;;7.60;5.87;;;12.10;99.90;;;;;;5084564;28;20215;-65
2023/05/01 04:54:49;;;;;;;5.37;4.70;;;12.20;99.90;;;;;;5085430;28;20205;-65
2023/05/01 04:57:18;;;;;;;7.50;4.40;;;12.30;99.90;;;;;;5082379;28;20201;-64
2023/05/01 04:59:45;;;;;;;4.80;4.30;;;12.40;99.90;;;;;;5080788;28;20213;-65
2023/05/01 05:02:12;;;;;;;5.83;4.00;;;12.40;99.90;;;;;;5080655;28;20204;-65
2023/05/01 05:04:39;;;;;;;3.83;3.47;;;12.50;99.90;;;;;;5080631;28;20290;-64
2023/05/01 05:07:07;;;;;;;4.37;3.97;;;12.50;99.90;;;;;;5080008;28;20210;-66
2023/05/01 05:09:35;;;;;;;4.27;3.60;;;12.50;99.90;;;;;;5080720;28;20554;-65
2023/05/01 05:12:02;;;;;;;3.77;3.40;;;12.60;99.90;;;;;;5080229;28;20233;-66
2023/05/01 05:14:31;;;;;;;3.87;3.47;;;12.80;99.90;;;;;;5080792;28;20216;-65
2023/05/01 05:16:58;;;;;;;4.43;3.67;;;12.90;99.90;;;;;;5080991;28;20292;-65
2023/05/01 05:19:26;;;;;;;3.50;3.20;;;13.00;99.90;;;;;;5079524;28;20213;-63
2023/05/01 05:21:53;;;;;;;4.67;3.17;;;13.10;99.90;;;;;;5079059;28;20594;-65
2023/05/01 05:24:20;;;;;;;4.20;3.80;;;13.10;99.90;;;;;;5078993;28;20224;-66
2023/05/01 05:26:47;;;;;;;4.73;3.50;;;13.20;99.90;;;;;;5079003;28;20208;-66
2023/05/01 05:29:14;;;;;;;3.60;3.30;;;13.20;99.90;;;;;;5079079;28;20205;-63
2023/05/01 05:31:42;;;;;;;7.47;3.40;;;13.30;99.90;;;;;;5078207;28;20225;-65
2023/05/01 05:34:09;;;;;;;4.53;3.80;;;13.30;99.90;;;;;;5079191;28;20626;-65
2023/05/01 05:36:36;;;;;;;5.87;4.60;;;13.40;99.90;;;;;;5079487;28;20209;-66
2023/05/01 05:39:03;;;;;;;5.13;3.33;;;13.50;99.90;;;;;;5079061;28;20219;-65
2023/05/01 05:41:30;;;;;;;4.33;3.73;;;13.60;99.90;;;;;;5078844;28;20248;-65
2023/05/01 05:43:58;;;;;;;3.73;3.30;;;13.60;99.90;;;;;;5079285;28;20692;-64
2023/05/01 05:46:25;;;;;;;4.40;3.50;;;13.70;99.90;;;;;;5079745;28;20232;-65
2023/05/01 05:48:53;;;;;;;3.83;2.87;;;13.70;99.90;;;;;;5080198;28;20673;-65
2023/05/01 05:51:20;;;;;;;3.80;3.30;;;13.80;99.90;;;;;;5079871;28;20225;-64
2023/05/01 05:53:47;;;;;;;3.30;2.87;;;13.80;99.90;;;;;;5080339;28;20232;-65
2023/05/01 05:56:15;;;;;;;4.27;3.20;;;14.00;99.90;;;;;;5080280;28;20641;-64
2023/05/01 05:58:42;;;;;;;4.67;3.13;;;14.10;99.90;;;;;;5079931;28;20350;-65
2023/05/01 06:01:10;;;;;;;3.37;3.07;;;14.20;99.90;;;;;;5079047;28;20253;-65
2023/05/01 06:03:37;;;;;;;5.33;3.10;;;14.30;99.90;;;;;;5080034;28;20266;-65
2023/05/01 06:06:06;;;;;;;4.80;3.10;;;14.40;99.90;;;;;;5080792;28;20212;-64
2023/05/01 06:08:34;;;;;;;3.87;2.83;;;14.50;99.90;;;;;;5080393;28;20212;-65
2023/05/01 06:11:01;;;;;;;4.43;3.23;;;14.50;99.90;;;;;;5080742;28;20232;-65
2023/05/01 06:13:28;;;;;;;3.93;2.73;;;14.40;99.90;;;;;;5080974;28;20209;-64
2023/05/01 06:15:55;;;;;;;3.93;3.40;;;14.30;99.90;;;;;;5080979;28;20213;-64
2023/05/01 06:18:22;;;;;;;5.80;3.40;;;14.30;99.90;;;;;;5080887;28;20201;-65
2023/05/01 06:20:51;;;;;;;4.03;3.10;;;14.20;99.90;;;;;;5080902;28;20232;-66
2023/05/01 06:23:19;;;;;;;5.13;3.40;;;14.20;99.90;;;;;;5081165;28;20204;-68
2023/05/01 06:25:47;;;;;;;3.40;3.10;;;14.20;99.90;;;;;;5081977;28;20228;-65
2023/05/01 06:28:14;;;;;;;5.23;3.30;;;14.10;99.90;;;;;;5082076;28;20258;-65
2023/05/01 06:30:41;;;;;;;4.33;3.00;;;14.10;99.90;;;;;;5082597;28;20252;-64
2023/05/01 06:33:09;;;;;;;5.10;3.50;;;14.00;99.90;;;;;;5081059;28;20265;-66
2023/05/01 06:35:38;;;;;;;5.00;3.00;;;14.00;99.90;;;;;;5079028;28;20201;-65
2023/05/01 06:38:05;;;;;;;3.30;3.00;;;13.90;99.90;;;;;;5080326;28;20209;-65
2023/05/01 06:40:34;;;;;;;3.20;2.80;;;14.00;99.90;;;;;;5080094;28;20729;-65
2023/05/01 06:43:01;;;;;;;4.50;3.30;;;14.00;99.90;;;;;;5079548;28;20204;-65
2023/05/01 06:45:28;;;;;;;4.03;3.20;;;13.90;99.90;;;;;;5078265;28;20233;-65
2023/05/01 06:47:55;;;;;;;4.27;2.87;;;13.90;99.90;;;;;;5080336;28;20205;-65
2023/05/01 06:50:22;;;;;;;5.40;3.00;;;13.90;99.90;;;;;;5078762;28;20252;-65
2023/05/01 06:52:49;;;;;;;3.23;2.93;;;13.80;99.90;;;;;;5082058;28;20243;-65
2023/05/01 06:55:17;;;;;;;5.50;2.90;;;13.70;99.90;;;;;;5081660;28;20572;-64
2023/05/01 06:57:49;;;;;;;3.77;2.80;;;13.70;99.90;;;;;;5082486;28;20271;-66
2023/05/01 07:00:17;;;;;;;4.27;3.10;;;13.70;99.90;;;;;;5082646;28;20364;-64
2023/05/01 07:02:45;;;;;;;3.53;3.23;;;13.70;99.90;;;;;;5079874;28;20201;-64
2023/05/01 07:05:12;;;;;;;4.47;2.80;;;13.80;99.90;;;;;;5079682;28;20618;-64
2023/05/01 07:07:39;;;;;;;3.93;3.47;;;13.90;99.90;;;;;;5079403;28;20209;-65
2023/05/01 07:10:07;;;;;;;4.60;3.00;;;14.00;99.90;;;;;;5078790;28;20652;-64
2023/05/01 07:12:34;;;;;;;4.07;2.97;;;14.10;99.90;;;;;;5079250;28;20675;-64
2023/05/01 07:15:03;;;;;;;4.87;3.60;;;14.10;99.90;;;;;;5080937;28;20200;-66
2023/05/01 07:17:34;;;;;;;6.00;3.70;;;14.30;99.90;;;;;;5082031;28;20212;-65
2023/05/01 07:20:09;;;;;;;4.07;3.33;;;14.40;99.90;;;;;;5082929;28;20291;-65
2023/05/01 07:22:36;;;;;;;5.50;3.37;;;14.60;99.90;;;;;;5081612;28;20220;-66
2023/05/01 07:25:03;;;;;;;6.83;3.30;;;14.70;99.90;;;;;;5081082;28;20221;-65
2023/05/01 07:27:30;;;;;;;5.40;3.20;;;14.60;99.90;;;;;;5078649;28;20201;-65
2023/05/01 07:29:57;;;;;;;4.27;2.87;;;14.60;99.90;;;;;;5081275;28;20205;-65
2023/05/01 07:32:29;;;;;;;5.27;3.30;;;14.50;99.90;;;;;;5081600;28;20204;-66
2023/05/01 07:34:56;;;;;;;3.93;3.00;;;14.40;99.90;;;;;;5083844;28;20215;-65
2023/05/01 07:37:33;;;;;;;4.57;3.37;;;14.40;99.90;;;;;;5082671;28;20229;-65
2023/05/01 07:42:27;;;;;;;5.43;3.77;;;14.80;99.90;;;;;;5090289;22;20233;-68
2023/05/01 07:44:54;;;;;;;3.93;3.37;;;14.80;99.90;;;;;;5068654;28;20606;-66
2023/05/01 07:47:21;;;;;;;3.50;3.20;;;14.90;99.90;;;;;;5078207;28;20211;-65
2023/05/01 07:49:49;;;;;;;5.93;3.37;;;15.00;99.90;;;;;;5078887;28;20240;-65
2023/05/01 07:52:16;;;;;;;4.07;3.47;;;14.90;99.90;;;;;;5078559;28;20319;-66
2023/05/01 07:54:42;;;;;;;5.13;3.30;;;14.80;99.90;;;;;;5078527;28;20201;-67
2023/05/01 07:57:09;;;;;;;4.97;3.60;;;14.80;99.90;;;;;;5077837;28;20212;-67
2023/05/01 07:59:36;;;;;;;4.10;3.70;;;14.80;99.90;;;;;;5078485;28;20212;-67
2023/05/01 08:02:03;;;;;;;4.57;3.83;;;14.90;99.90;;;;;;5078640;28;20285;-68
2023/05/01 08:04:29;;;;;;;4.60;4.10;;;15.10;99.90;;;;;;5078082;28;20717;-68
2023/05/01 08:06:57;;;;;;;4.57;3.83;;;15.20;99.90;;;;;;5078265;28;20637;-68
2023/05/01 08:09:24;;;;;;;4.77;3.80;;;15.10;99.90;;;;;;5077907;28;20209;-68
2023/05/01 08:11:51;;;;;;;4.50;3.97;;;15.20;99.90;;;;;;5078018;28;20221;-67
2023/05/01 08:14:18;;;;;;;6.03;4.17;;;15.30;99.90;;;;;;5078603;28;20254;-67
2023/05/01 08:16:44;;;;;;;4.00;3.50;;;15.40;99.90;;;;;;5078513;28;20307;-69
2023/05/01 08:19:11;;;;;;;6.90;3.80;;;15.50;99.90;;;;;;5078077;28;20208;-67
2023/05/01 08:21:38;;;;;;;3.97;3.40;;;15.50;99.90;;;;;;5078154;28;20282;-67
2023/05/01 08:24:09;;;;;;;4.60;3.20;;;15.60;99.90;;;;;;5078332;28;20217;-67
2023/05/01 08:26:36;;;;;;;5.60;3.60;;;15.70;99.90;;;;;;5078154;28;20208;-67
2023/05/01 08:29:02;;;;;;;6.00;3.90;;;15.90;99.90;;;;;;5078134;28;20615;-67
2023/05/01 08:31:29;;;;;;;5.70;3.83;;;16.00;99.90;;;;;;5078173;28;20282;-67
2023/05/01 08:33:56;;;;;;;3.80;3.37;;;16.00;99.90;;;;;;5078015;28;20303;-67
2023/05/01 08:36:26;;;;;;;5.10;3.10;;;15.80;99.90;;;;;;5078208;28;20258;-67
2023/05/01 08:38:52;;;;;;;4.10;3.63;;;15.90;99.90;;;;;;5078404;28;20617;-66
2023/05/01 08:41:22;;;;;;;5.53;3.40;;;16.30;99.90;;;;;;5078403;28;20232;-62
2023/05/01 08:43:49;;;;;;;3.80;3.40;;;16.50;99.90;;;;;;5078496;28;20209;-62
2023/05/01 08:46:25;;;;;;;4.30;3.58;;;16.80;99.90;;;;;;5078695;28;20224;-63
2023/05/01 08:48:54;;;;;;;5.03;3.38;;;17.30;99.90;;;;;;5079078;28;20600;-62
2023/05/01 08:51:22;;;;;;;3.90;3.15;;;17.50;99.90;;;;;;5078816;28;20224;-63
2023/05/01 08:53:51;;;;;;;3.45;3.15;;;17.70;99.90;;;;;;5078157;28;20216;-63
2023/05/01 08:56:20;;;;;;;3.28;2.97;;;17.90;99.90;;;;;;5078104;28;20200;-63
2023/05/01 08:58:49;;;;;;;3.50;3.15;;;17.90;99.90;;;;;;5073643;28;20240;-63
2023/05/01 09:01:17;;;;;;;6.45;3.13;;;18.00;99.90;;;;;;5074824;28;20243;-62
2023/05/01 09:03:45;;;;;;;5.18;3.35;;;18.10;99.90;;;;;;5074586;28;20212;-62
2023/05/01 09:06:12;;;;;;;5.53;3.13;;;18.20;99.90;;;;;;5074601;28;20229;-62
2023/05/01 09:08:39;;;;;;;4.72;3.63;;;18.40;99.90;;;;;;5074561;28;20266;-62
2023/05/01 09:11:06;;;;;;;4.82;3.50;;;18.40;99.90;;;;;;5074710;28;20278;-62
2023/05/01 09:13:33;;;;;;;3.28;2.90;;;18.60;99.90;;;;;;5074463;28;20208;-65
2023/05/01 09:16:02;;;;;;;3.35;3.05;;;18.70;99.90;;;;;;5074226;28;20208;-63
2023/05/01 09:18:30;;;;;;;4.18;3.35;;;19.10;99.90;;;;;;5073890;28;20323;-63
2023/05/01 09:20:58;;;;;;;5.03;2.92;;;19.50;99.90;;;;;;5074353;28;20237;-62
2023/05/01 09:23:24;;;;;;;5.10;3.63;;;20.00;99.90;;;;;;5074542;28;20216;-63
2023/05/01 09:25:52;;;;;;;3.47;3.13;;;20.30;99.90;;;;;;5074584;28;20304;-64
2023/05/01 09:28:18;;;;;;;5.80;3.20;;;20.50;99.90;;;;;;5073933;28;20204;-63
2023/05/01 09:30:45;;;;;;;4.50;3.15;;;20.60;99.90;;;;;;5074136;28;20225;-65
2023/05/01 09:33:15;;;;;;;3.40;3.10;;;20.60;99.90;;;;;;5074019;28;20200;-65
2023/05/01 09:35:50;;;;;;;3.95;3.05;;;20.70;99.90;;;;;;5074635;28;20247;-64
2023/05/01 09:38:21;;;;;;;4.53;3.75;;;20.90;99.90;;;;;;5073746;28;20675;-64
2023/05/01 09:40:48;;;;;;;4.97;3.50;;;21.60;99.90;;;;;;5073789;28;20746;-65
2023/05/01 09:43:25;;;;;;;5.63;3.47;;;21.80;99.90;;;;;;5073959;28;20441;-64
2023/05/01 09:46:01;;;;;;;3.63;3.20;;;21.50;99.90;;;;;;5073854;28;20316;-65
2023/05/01 09:48:29;;;;;;;3.55;3.25;;;21.20;99.90;;;;;;5073654;28;20209;-65
2023/05/01 09:50:56;;;;;;;5.70;3.75;;;21.30;99.90;;;;;;5073549;28;20255;-64
2023/05/01 09:53:36;;;;;;;4.47;4.07;;;21.60;99.50;;;;;;5073589;28;20209;-65
2023/05/01 09:56:03;;;;;;;3.80;3.28;;;21.70;99.70;;;;;;5073527;28;20211;-65
2023/05/01 09:58:30;;;;;;;5.05;3.13;;;22.10;99.00;;;;;;5073207;28;20659;-65
2023/05/01 10:00:57;;;;;;;3.22;2.92;;;22.30;98.30;;;;;;5073574;28;20224;-64
2023/05/01 10:03:23;;;;;;;5.30;3.30;;;22.50;97.90;;;;;;5073412;28;20205;-65
2023/05/01 10:05:55;;;;;;;3.63;3.10;;;22.60;97.40;;;;;;5073278;28;20225;-66
2023/05/01 10:08:22;;;;;;;3.80;3.30;;;22.50;96.80;;;;;;5073448;28;20237;-64
2023/05/01 10:11:02;;;;;;;3.85;3.30;;;22.10;97.20;;;;;;5073385;28;20256;-65
2023/05/01 10:13:29;;;;;;;4.88;3.65;;;21.50;97.60;;;;;;5073460;28;20292;-68
2023/05/01 10:15:56;;;;;;;7.82;3.28;;;21.00;98.20;;;;;;5073378;28;20205;-65
2023/05/01 10:18:23;;;;;;;4.10;3.70;;;20.70;98.60;;;;;;5063983;28;20208;-63
2023/05/01 10:20:51;;;;;;;5.22;4.07;;;20.90;98.80;;;;;;5060999;28;20234;-65
2023/05/01 10:23:18;;;;;;;4.05;3.33;;;21.00;98.50;;;;;;5052337;28;20212;-66
2023/05/01 10:25:48;;;;;;;6.07;3.50;;;21.50;97.60;;;;;;5051854;28;20264;-65
2023/05/01 10:28:15;;;;;;;4.22;3.80;;;21.60;97.60;;;;;;5051901;28;20296;-67
2023/05/01 10:30:42;;;;;;;6.43;3.60;;;21.60;97.40;;;;;;5052200;28;20236;-68
2023/05/01 10:33:09;;;;;;;4.22;3.60;;;21.40;97.50;;;;;;5051512;28;20206;-66
2023/05/01 10:35:40;;;;;;;3.72;3.33;;;21.40;97.80;;;;;;5051367;28;20204;-65
2023/05/01 10:38:13;;;;;;;3.80;3.45;;;21.70;97.70;;;;;;5051401;28;20712;-65
2023/05/01 10:40:50;;;;;;;5.82;3.58;;;22.20;97.30;;;;;;5051194;28;20237;-64
2023/05/01 10:43:19;;;;;;;6.88;5.53;;;22.70;96.60;;;;;;5051949;28;20581;-65
2023/05/01 10:45:47;;;;;;;5.63;4.38;;;23.00;95.40;;;;;;5051599;28;20320;-65
2023/05/01 10:48:47;;;;;;;6.43;4.03;;;22.70;95.70;;;;;;5051151;28;20696;-67
2023/05/01 10:51:16;;;;;;;4.97;4.35;;;22.60;96.10;;;;;;5051619;28;20244;-67
2023/05/01 10:53:45;;;;;;;5.55;4.03;;;22.90;95.20;;;;;;5051852;28;20218;-65
2023/05/01 10:56:51;;;;;;;4.03;3.63;;;22.80;95.00;;;;;;5050876;28;20259;-65
2023/05/01 10:59:17;;;;;;;4.75;4.00;;;22.30;95.40;;;;;;5026282;28;20221;-65
2023/05/01 11:01:46;;;;;;;6.32;4.28;;;21.80;96.00;;;;;;5051128;28;20222;-64
2023/05/01 11:04:55;;;;;;;4.05;3.67;;;21.70;96.10;;;;;;5051839;28;20209;-64
2023/05/01 11:07:24;;;;;;;4.18;3.78;;;21.90;96.20;;;;;;4992872;28;20235;-66
2023/05/01 11:09:57;;;;;;;6.95;5.85;;;21.60;96.70;;;;;;5050550;28;20681;-64
2023/05/01 11:12:51;;;;;;;4.85;4.05;;;21.40;97.00;;;;;;5051268;28;20278;-65
2023/05/01 11:15:31;;;;;;;4.30;3.55;;;21.20;96.80;;;;;;5050683;28;20263;-68
2023/05/01 11:17:59;;;;;;;3.85;3.25;;;21.40;96.30;;;;;;5051134;28;20236;-65
2023/05/01 11:20:48;;;;;;;5.05;4.63;;;21.80;95.70;;;;;;5050495;28;20241;-66
2023/05/01 11:23:24;;;;;;;4.50;3.92;;;22.30;95.10;;;;;;5050834;28;20292;-68
2023/05/01 11:26:07;;;;;;;4.93;3.88;;;22.40;95.10;;;;;;5051010;28;20225;-64
2023/05/01 11:28:34;;;;;;;4.45;4.05;;;22.40;94.60;;;;;;5052297;28;20216;-63
2023/05/01 11:31:02;;;;;;;4.30;3.78;;;22.20;95.00;;;;;;5051992;28;20236;-64
2023/05/01 11:33:29;;;;;;;3.80;3.40;;;22.30;94.70;;;;;;5052634;28;20259;-64
2023/05/01 11:36:00;;;;;;;4.85;4.22;;;22.40;94.70;;;;;;5052836;28;20289;-62
2023/05/01 11:38:27;;;;;;;5.05;4.20;;;22.30;94.70;;;;;;5052965;28;20700;-62
2023/05/01 11:40:59;;;;;;;4.70;3.75;;;22.20;95.00;;;;;;5053459;28;20244;-62
2023/05/01 11:43:26;;;;;;;3.90;3.60;;;22.50;95.00;;;;;;5053271;28;20696;-63
2023/05/01 11:45:55;;;;;;;3.63;3.33;;;22.80;94.20;;;;;;5053083;28;20591;-64
2023/05/01 11:48:22;;;;;;;4.32;3.45;;;23.10;93.10;;;;;;5051995;28;20201;-61
2023/05/01 11:50:49;;;;;;;3.95;3.42;;;23.00;92.90;;;;;;5051647;28;20253;-63
2023/05/01 11:53:16;;;;;;;4.13;3.72;;;23.20;92.30;;;;;;5051679;28;20241;-63
2023/05/01 11:55:43;;;;;;;5.55;4.07;;;22.90;92.90;;;;;;5052034;28;20208;-62
2023/05/01 11:58:11;;;;;;;5.13;4.07;;;22.70;93.30;;;;;;5052051;28;20213;-62
2023/05/01 12:00:40;;;;;;;4.10;3.20;;;22.30;93.90;;;;;;5052052;28;20230;-62
2023/05/01 12:03:08;;;;;;;4.65;3.97;;;22.10;93.10;;;;;;5052057;28;20201;-63
2023/05/01 12:05:37;;;;;;;5.22;3.45;;;22.00;94.00;;;;;;5051929;28;20232;-64
2023/05/01 12:08:12;;;;;;;3.17;2.88;;;22.10;93.10;;;;;;5051407;28;20687;-63
2023/05/01 12:10:40;;;;;;;3.83;2.67;;;22.30;92.30;;;;;;5051891;28;20229;-63
2023/05/01 12:13:09;;;;;;;4.38;3.72;;;22.80;91.60;;;;;;5051719;28;20232;-63
2023/05/01 12:15:39;;;;;;;4.68;3.35;;;23.40;91.30;;;;;;5051233;28;20680;-63
2023/05/01 12:18:06;;;;;;;4.30;2.97;;;23.80;90.10;;;;;;5051368;28;20267;-63
2023/05/01 12:20:37;;;;;;;18.02;14.27;;;23.40;90.70;;;;;;5051440;28;20233;-62
2023/05/01 12:23:05;;;;;;;3.25;2.95;;;23.40;90.30;;;;;;5051516;28;20205;-63
2023/05/01 12:25:32;;;;;;;3.50;3.20;;;23.50;89.90;;;;;;5051416;28;20384;-66
2023/05/01 12:28:00;;;;;;;3.78;3.42;;;23.30;89.80;;;;;;5051035;28;20209;-63
2023/05/01 12:30:28;;;;;;;3.92;3.38;;;23.20;90.40;;;;;;5051683;28;20235;-61
2023/05/01 12:32:57;;;;;;;4.85;3.10;;;23.40;89.90;;;;;;5052765;28;20205;-62
2023/05/01 12:35:29;;;;;;;4.28;3.40;;;23.30;89.60;;;;;;5055543;28;20205;-62
2023/05/01 12:37:56;;;;;;;4.40;3.35;;;23.40;90.10;;;;;;5054881;28;20678;-62
2023/05/01 12:40:23;;;;;;;5.70;3.65;;;23.60;90.20;;;;;;5054862;28;20229;-61
2023/05/01 12:42:56;;;;;;;4.30;2.97;;;23.60;89.50;;;;;;5055404;28;20210;-62
2023/05/01 12:45:23;;;;;;;4.25;3.60;;;23.80;90.10;;;;;;5055244;28;20206;-62
2023/05/01 12:47:49;;;;;;;4.15;3.75;;;23.70;89.50;;;;;;5054806;28;20225;-62
2023/05/01 12:50:19;;;;;;;4.38;3.47;;;23.30;90.30;;;;;;5055178;28;20209;-65
2023/05/01 12:52:46;;;;;;;7.43;5.43;;;23.00;90.10;;;;;;5054957;28;20209;-63
2023/05/01 12:55:13;;;;;;;5.43;3.90;;;22.60;91.40;;;;;;5055165;28;20202;-63
2023/05/01 12:57:52;;;;;;;4.15;3.75;;;22.60;90.60;;;;;;5054177;28;20395;-62